sensor_id;sensor_type;location;lat;lon;timestamp;P1;durP1;ratioP1;P2;durP2;ratioP2
77453;SDS011;66538;53.150;18.160;2023-06-24T00:01:05;7.50;;;3.50;;
77453;SDS011;66538;53.150;18.160;2023-06-24T00:03:37;5.70;;;3.20;;
77453;SDS011;66538;53.150;18.160;2023-06-24T00:06:03;5.90;;;3.80;;
77453;SDS011;66538;53.150;18.160;2023-06-24T00:08:30;5.70;;;3.40;;
77453;SDS011;66538;53.150;18.160;2023-06-24T00:11:01;5.70;;;3.40;;
77453;SDS011;66538;53.150;18.160;2023-06-24T00:13:28;5.80;;;3.10;;
77453;SDS011;66538;53.150;18.160;2023-06-24T00:15:55;5.90;;;3.10;;
77453;SDS011;66538;53.150;18.160;2023-06-24T00:18:22;5.30;;;3.40;;
77453;SDS011;66538;53.150;18.160;2023-06-24T00:20:50;6.30;;;3.40;;
77453;SDS011;66538;53.150;18.160;2023-06-24T00:23:19;5.70;;;3.30;;
77453;SDS011;66538;53.150;18.160;2023-06-24T00:25:51;7.10;;;3.90;;
77453;SDS011;66538;53.150;18.160;2023-06-24T00:28:19;6.50;;;3.80;;
77453;SDS011;66538;53.150;18.160;2023-06-24T00:30:46;6.10;;;3.40;;
77453;SDS011;66538;53.150;18.160;2023-06-24T00:33:13;6.60;;;3.20;;
77453;SDS011;66538;53.150;18.160;2023-06-24T00:35:40;5.60;;;3.40;;
77453;SDS011;66538;53.150;18.160;2023-06-24T00:38:08;6.50;;;3.50;;
77453;SDS011;66538;53.150;18.160;2023-06-24T00:40:35;5.90;;;3.30;;
77453;SDS011;66538;53.150;18.160;2023-06-24T00:43:02;6.10;;;3.70;;
77453;SDS011;66538;53.150;18.160;2023-06-24T00:45:30;6.00;;;3.40;;
77453;SDS011;66538;53.150;18.160;2023-06-24T00:47:58;5.70;;;3.40;;
77453;SDS011;66538;53.150;18.160;2023-06-24T00:50:26;5.30;;;3.10;;
77453;SDS011;66538;53.150;18.160;2023-06-24T00:52:53;6.00;;;4.00;;
77453;SDS011;66538;53.150;18.160;2023-06-24T00:55:20;7.00;;;4.10;;
77453;SDS011;66538;53.150;18.160;2023-06-24T00:57:49;5.70;;;3.30;;
77453;SDS011;66538;53.150;18.160;2023-06-24T01:00:18;6.90;;;3.70;;
77453;SDS011;66538;53.150;18.160;2023-06-24T01:02:46;6.20;;;3.80;;
77453;SDS011;66538;53.150;18.160;2023-06-24T01:05:14;5.90;;;3.80;;
77453;SDS011;66538;53.150;18.160;2023-06-24T01:07:41;7.00;;;3.60;;
77453;SDS011;66538;53.150;18.160;2023-06-24T01:10:08;5.80;;;3.30;;
77453;SDS011;66538;53.150;18.160;2023-06-24T01:12:39;5.90;;;3.60;;
77453;SDS011;66538;53.150;18.160;2023-06-24T01:15:10;6.10;;;3.80;;
77453;SDS011;66538;53.150;18.160;2023-06-24T01:17:59;5.90;;;3.70;;
77453;SDS011;66538;53.150;18.160;2023-06-24T01:21:39;6.00;;;3.70;;
77453;SDS011;66538;53.150;18.160;2023-06-24T01:26:21;7.40;;;3.50;;
77453;SDS011;66538;53.150;18.160;2023-06-24T01:32:19;5.60;;;3.20;;
77453;SDS011;66538;53.150;18.160;2023-06-24T01:34:57;6.40;;;3.50;;
77453;SDS011;66538;53.150;18.160;2023-06-24T01:40:15;7.00;;;3.80;;
77453;SDS011;66538;53.150;18.160;2023-06-24T01:42:49;7.60;;;3.30;;
77453;SDS011;66538;53.150;18.160;2023-06-24T01:45:19;6.70;;;3.60;;
77453;SDS011;66538;53.150;18.160;2023-06-24T01:47:48;6.30;;;4.00;;
77453;SDS011;66538;53.150;18.160;2023-06-24T01:50:21;5.80;;;3.10;;
77453;SDS011;66538;53.150;18.160;2023-06-24T01:52:50;7.80;;;4.00;;
77453;SDS011;66538;53.150;18.160;2023-06-24T01:55:19;5.10;;;3.10;;
77453;SDS011;66538;53.150;18.160;2023-06-24T01:57:49;4.80;;;2.80;;
77453;SDS011;66538;53.150;18.160;2023-06-24T02:00:18;6.40;;;3.30;;
77453;SDS011;66538;53.150;18.160;2023-06-24T02:02:50;7.20;;;4.00;;
77453;SDS011;66538;53.150;18.160;2023-06-24T02:05:19;6.50;;;3.80;;
77453;SDS011;66538;53.150;18.160;2023-06-24T02:07:49;5.70;;;3.30;;
77453;SDS011;66538;53.150;18.160;2023-06-24T02:10:18;6.20;;;3.90;;
77453;SDS011;66538;53.150;18.160;2023-06-24T02:12:47;7.00;;;3.70;;
77453;SDS011;66538;53.150;18.160;2023-06-24T02:15:15;6.80;;;3.70;;
77453;SDS011;66538;53.150;18.160;2023-06-24T02:17:44;6.60;;;3.80;;
77453;SDS011;66538;53.150;18.160;2023-06-24T02:20:13;6.90;;;4.10;;
77453;SDS011;66538;53.150;18.160;2023-06-24T02:22:42;8.10;;;4.30;;
77453;SDS011;66538;53.150;18.160;2023-06-24T02:25:10;5.90;;;3.40;;
77453;SDS011;66538;53.150;18.160;2023-06-24T02:27:38;6.30;;;3.60;;
77453;SDS011;66538;53.150;18.160;2023-06-24T02:30:06;5.90;;;3.70;;
77453;SDS011;66538;53.150;18.160;2023-06-24T02:32:35;6.60;;;4.20;;
77453;SDS011;66538;53.150;18.160;2023-06-24T02:35:04;6.00;;;3.50;;
77453;SDS011;66538;53.150;18.160;2023-06-24T02:37:32;6.60;;;4.30;;
77453;SDS011;66538;53.150;18.160;2023-06-24T02:39:58;7.30;;;3.90;;
77453;SDS011;66538;53.150;18.160;2023-06-24T02:42:26;6.00;;;3.50;;
77453;SDS011;66538;53.150;18.160;2023-06-24T02:44:52;7.10;;;3.80;;
77453;SDS011;66538;53.150;18.160;2023-06-24T02:47:19;7.20;;;3.90;;
77453;SDS011;66538;53.150;18.160;2023-06-24T02:52:15;9.00;;;4.60;;
77453;SDS011;66538;53.150;18.160;2023-06-24T02:54:42;8.70;;;4.30;;
77453;SDS011;66538;53.150;18.160;2023-06-24T02:57:21;6.60;;;3.60;;
77453;SDS011;66538;53.150;18.160;2023-06-24T03:00:10;6.10;;;3.60;;
77453;SDS011;66538;53.150;18.160;2023-06-24T03:03:00;6.70;;;4.30;;
77453;SDS011;66538;53.150;18.160;2023-06-24T03:05:29;8.20;;;3.70;;
77453;SDS011;66538;53.150;18.160;2023-06-24T03:07:58;6.10;;;4.00;;
77453;SDS011;66538;53.150;18.160;2023-06-24T03:10:25;5.20;;;3.40;;
77453;SDS011;66538;53.150;18.160;2023-06-24T03:12:52;5.60;;;3.30;;
77453;SDS011;66538;53.150;18.160;2023-06-24T03:15:20;7.20;;;3.70;;
77453;SDS011;66538;53.150;18.160;2023-06-24T03:17:47;7.20;;;3.70;;
77453;SDS011;66538;53.150;18.160;2023-06-24T03:20:14;5.60;;;3.50;;
77453;SDS011;66538;53.150;18.160;2023-06-24T03:22:40;5.60;;;3.40;;
77453;SDS011;66538;53.150;18.160;2023-06-24T03:25:09;6.60;;;3.40;;
77453;SDS011;66538;53.150;18.160;2023-06-24T03:27:36;7.00;;;3.40;;
77453;SDS011;66538;53.150;18.160;2023-06-24T03:30:03;7.40;;;3.70;;
77453;SDS011;66538;53.150;18.160;2023-06-24T03:32:32;7.00;;;3.80;;
77453;SDS011;66538;53.150;18.160;2023-06-24T03:35:03;6.30;;;3.50;;
77453;SDS011;66538;53.150;18.160;2023-06-24T03:37:30;7.90;;;3.70;;
77453;SDS011;66538;53.150;18.160;2023-06-24T03:39:57;5.50;;;3.50;;
77453;SDS011;66538;53.150;18.160;2023-06-24T03:42:23;5.50;;;3.40;;
77453;SDS011;66538;53.150;18.160;2023-06-24T03:44:50;5.50;;;3.50;;
77453;SDS011;66538;53.150;18.160;2023-06-24T03:47:17;4.80;;;3.00;;
77453;SDS011;66538;53.150;18.160;2023-06-24T03:49:43;6.60;;;3.30;;
77453;SDS011;66538;53.150;18.160;2023-06-24T03:52:11;5.90;;;3.60;;
77453;SDS011;66538;53.150;18.160;2023-06-24T03:54:38;6.80;;;3.90;;
77453;SDS011;66538;53.150;18.160;2023-06-24T03:59:34;7.00;;;3.30;;
77453;SDS011;66538;53.150;18.160;2023-06-24T04:02:01;5.40;;;3.10;;
77453;SDS011;66538;53.150;18.160;2023-06-24T04:04:27;4.50;;;2.70;;
77453;SDS011;66538;53.150;18.160;2023-06-24T04:06:56;5.80;;;3.10;;
77453;SDS011;66538;53.150;18.160;2023-06-24T04:09:22;6.60;;;3.50;;
77453;SDS011;66538;53.150;18.160;2023-06-24T04:11:53;6.10;;;3.60;;
77453;SDS011;66538;53.150;18.160;2023-06-24T04:14:20;8.50;;;4.00;;
77453;SDS011;66538;53.150;18.160;2023-06-24T04:16:46;5.40;;;3.10;;
77453;SDS011;66538;53.150;18.160;2023-06-24T04:19:13;6.00;;;3.30;;
77453;SDS011;66538;53.150;18.160;2023-06-24T04:21:40;6.20;;;3.50;;
77453;SDS011;66538;53.150;18.160;2023-06-24T04:24:06;5.00;;;3.00;;
77453;SDS011;66538;53.150;18.160;2023-06-24T04:26:33;6.80;;;3.30;;
77453;SDS011;66538;53.150;18.160;2023-06-24T04:29:00;6.50;;;4.00;;
77453;SDS011;66538;53.150;18.160;2023-06-24T04:31:26;5.30;;;3.20;;
77453;SDS011;66538;53.150;18.160;2023-06-24T04:33:54;6.80;;;3.60;;
77453;SDS011;66538;53.150;18.160;2023-06-24T04:36:21;6.70;;;3.80;;
77453;SDS011;66538;53.150;18.160;2023-06-24T04:38:47;8.20;;;3.20;;
77453;SDS011;66538;53.150;18.160;2023-06-24T04:41:14;6.70;;;3.80;;
77453;SDS011;66538;53.150;18.160;2023-06-24T04:43:41;7.30;;;3.70;;
77453;SDS011;66538;53.150;18.160;2023-06-24T04:46:08;5.40;;;3.30;;
77453;SDS011;66538;53.150;18.160;2023-06-24T04:48:35;6.90;;;3.80;;
77453;SDS011;66538;53.150;18.160;2023-06-24T04:51:02;7.30;;;4.50;;
77453;SDS011;66538;53.150;18.160;2023-06-24T04:53:28;6.10;;;3.90;;
77453;SDS011;66538;53.150;18.160;2023-06-24T04:55:55;7.00;;;4.30;;
77453;SDS011;66538;53.150;18.160;2023-06-24T04:58:22;7.70;;;3.80;;
77453;SDS011;66538;53.150;18.160;2023-06-24T05:00:49;5.90;;;4.30;;
77453;SDS011;66538;53.150;18.160;2023-06-24T05:03:15;9.10;;;4.50;;
77453;SDS011;66538;53.150;18.160;2023-06-24T05:05:42;7.70;;;4.40;;
77453;SDS011;66538;53.150;18.160;2023-06-24T05:08:09;8.00;;;4.30;;
77453;SDS011;66538;53.150;18.160;2023-06-24T05:10:35;5.40;;;3.30;;
77453;SDS011;66538;53.150;18.160;2023-06-24T05:13:02;7.00;;;4.50;;
77453;SDS011;66538;53.150;18.160;2023-06-24T05:15:28;6.50;;;4.00;;
77453;SDS011;66538;53.150;18.160;2023-06-24T05:17:55;6.20;;;3.20;;
77453;SDS011;66538;53.150;18.160;2023-06-24T05:20:22;8.10;;;4.40;;
77453;SDS011;66538;53.150;18.160;2023-06-24T05:22:49;7.00;;;4.00;;
77453;SDS011;66538;53.150;18.160;2023-06-24T05:25:15;6.00;;;3.10;;
77453;SDS011;66538;53.150;18.160;2023-06-24T05:27:42;7.20;;;3.70;;
77453;SDS011;66538;53.150;18.160;2023-06-24T05:30:11;6.60;;;3.40;;
77453;SDS011;66538;53.150;18.160;2023-06-24T05:35:05;6.80;;;3.70;;
77453;SDS011;66538;53.150;18.160;2023-06-24T05:37:32;6.90;;;3.60;;
77453;SDS011;66538;53.150;18.160;2023-06-24T05:39:59;7.80;;;3.80;;
77453;SDS011;66538;53.150;18.160;2023-06-24T05:42:27;6.30;;;3.70;;
77453;SDS011;66538;53.150;18.160;2023-06-24T05:44:54;7.00;;;3.10;;
77453;SDS011;66538;53.150;18.160;2023-06-24T05:47:20;5.00;;;2.30;;
77453;SDS011;66538;53.150;18.160;2023-06-24T05:49:47;4.80;;;2.80;;
77453;SDS011;66538;53.150;18.160;2023-06-24T05:52:14;5.90;;;3.10;;
77453;SDS011;66538;53.150;18.160;2023-06-24T05:54:40;6.10;;;3.00;;
77453;SDS011;66538;53.150;18.160;2023-06-24T05:57:07;4.80;;;3.10;;
77453;SDS011;66538;53.150;18.160;2023-06-24T05:59:33;6.40;;;3.80;;
77453;SDS011;66538;53.150;18.160;2023-06-24T06:02:00;7.20;;;3.30;;
77453;SDS011;66538;53.150;18.160;2023-06-24T06:04:28;5.50;;;3.00;;
77453;SDS011;66538;53.150;18.160;2023-06-24T06:06:54;5.30;;;3.00;;
77453;SDS011;66538;53.150;18.160;2023-06-24T06:09:21;5.40;;;3.20;;
77453;SDS011;66538;53.150;18.160;2023-06-24T06:11:48;9.10;;;4.10;;
77453;SDS011;66538;53.150;18.160;2023-06-24T06:14:15;6.80;;;3.40;;
77453;SDS011;66538;53.150;18.160;2023-06-24T06:16:42;8.50;;;3.50;;
77453;SDS011;66538;53.150;18.160;2023-06-24T06:19:08;6.00;;;3.10;;
77453;SDS011;66538;53.150;18.160;2023-06-24T06:21:36;6.10;;;3.10;;
77453;SDS011;66538;53.150;18.160;2023-06-24T06:24:03;6.30;;;3.50;;
77453;SDS011;66538;53.150;18.160;2023-06-24T06:26:30;5.40;;;2.90;;
77453;SDS011;66538;53.150;18.160;2023-06-24T06:28:57;5.40;;;3.00;;
77453;SDS011;66538;53.150;18.160;2023-06-24T06:31:23;5.60;;;3.40;;
77453;SDS011;66538;53.150;18.160;2023-06-24T06:33:52;5.30;;;3.40;;
77453;SDS011;66538;53.150;18.160;2023-06-24T06:36:18;5.10;;;3.00;;
77453;SDS011;66538;53.150;18.160;2023-06-24T06:38:45;6.00;;;2.90;;
77453;SDS011;66538;53.150;18.160;2023-06-24T06:41:12;6.00;;;3.00;;
77453;SDS011;66538;53.150;18.160;2023-06-24T06:43:38;5.50;;;3.10;;
77453;SDS011;66538;53.150;18.160;2023-06-24T06:46:05;5.40;;;3.60;;
77453;SDS011;66538;53.150;18.160;2023-06-24T06:48:31;7.40;;;3.50;;
77453;SDS011;66538;53.150;18.160;2023-06-24T06:50:58;6.30;;;3.30;;
77453;SDS011;66538;53.150;18.160;2023-06-24T06:53:24;5.60;;;2.90;;
77453;SDS011;66538;53.150;18.160;2023-06-24T06:55:51;5.40;;;3.70;;
77453;SDS011;66538;53.150;18.160;2023-06-24T06:58:18;6.60;;;3.70;;
77453;SDS011;66538;53.150;18.160;2023-06-24T07:00:44;5.20;;;3.30;;
77453;SDS011;66538;53.150;18.160;2023-06-24T07:03:11;6.40;;;3.40;;
77453;SDS011;66538;53.150;18.160;2023-06-24T07:05:38;6.00;;;3.10;;
77453;SDS011;66538;53.150;18.160;2023-06-24T07:08:05;4.90;;;2.80;;
77453;SDS011;66538;53.150;18.160;2023-06-24T07:10:32;5.40;;;3.00;;
77453;SDS011;66538;53.150;18.160;2023-06-24T07:12:58;5.10;;;2.90;;
77453;SDS011;66538;53.150;18.160;2023-06-24T07:15:25;7.30;;;3.50;;
77453;SDS011;66538;53.150;18.160;2023-06-24T07:17:53;6.20;;;3.10;;
77453;SDS011;66538;53.150;18.160;2023-06-24T07:20:20;5.60;;;2.70;;
77453;SDS011;66538;53.150;18.160;2023-06-24T07:22:48;4.90;;;2.80;;
77453;SDS011;66538;53.150;18.160;2023-06-24T07:25:14;4.80;;;2.80;;
77453;SDS011;66538;53.150;18.160;2023-06-24T07:27:41;5.00;;;3.20;;
77453;SDS011;66538;53.150;18.160;2023-06-24T07:30:08;7.70;;;3.30;;
77453;SDS011;66538;53.150;18.160;2023-06-24T07:32:35;5.40;;;2.90;;
77453;SDS011;66538;53.150;18.160;2023-06-24T07:35:01;4.90;;;2.80;;
77453;SDS011;66538;53.150;18.160;2023-06-24T07:37:28;7.20;;;3.20;;
77453;SDS011;66538;53.150;18.160;2023-06-24T07:39:55;6.80;;;3.20;;
77453;SDS011;66538;53.150;18.160;2023-06-24T07:42:21;5.80;;;2.40;;
77453;SDS011;66538;53.150;18.160;2023-06-24T07:44:48;5.30;;;2.90;;
77453;SDS011;66538;53.150;18.160;2023-06-24T07:47:18;4.20;;;2.40;;
77453;SDS011;66538;53.150;18.160;2023-06-24T07:49:45;5.50;;;2.60;;
77453;SDS011;66538;53.150;18.160;2023-06-24T07:52:11;5.20;;;2.70;;
77453;SDS011;66538;53.150;18.160;2023-06-24T07:54:38;6.20;;;3.10;;
77453;SDS011;66538;53.150;18.160;2023-06-24T07:57:05;4.20;;;2.50;;
77453;SDS011;66538;53.150;18.160;2023-06-24T07:59:31;4.90;;;2.50;;
77453;SDS011;66538;53.150;18.160;2023-06-24T08:01:58;5.00;;;2.90;;
77453;SDS011;66538;53.150;18.160;2023-06-24T08:04:25;5.30;;;2.50;;
77453;SDS011;66538;53.150;18.160;2023-06-24T08:06:51;5.40;;;2.70;;
77453;SDS011;66538;53.150;18.160;2023-06-24T08:09:18;5.30;;;2.80;;
77453;SDS011;66538;53.150;18.160;2023-06-24T08:11:45;5.60;;;3.20;;
77453;SDS011;66538;53.150;18.160;2023-06-24T08:14:12;5.10;;;2.90;;
77453;SDS011;66538;53.150;18.160;2023-06-24T08:16:39;3.60;;;2.00;;
77453;SDS011;66538;53.150;18.160;2023-06-24T08:19:05;4.70;;;2.80;;
77453;SDS011;66538;53.150;18.160;2023-06-24T08:21:32;4.80;;;2.50;;
77453;SDS011;66538;53.150;18.160;2023-06-24T08:24:00;4.80;;;3.20;;
77453;SDS011;66538;53.150;18.160;2023-06-24T08:26:27;6.00;;;3.10;;
77453;SDS011;66538;53.150;18.160;2023-06-24T08:28:53;4.80;;;2.80;;
77453;SDS011;66538;53.150;18.160;2023-06-24T08:31:20;5.10;;;3.20;;
77453;SDS011;66538;53.150;18.160;2023-06-24T08:33:51;5.30;;;2.30;;
77453;SDS011;66538;53.150;18.160;2023-06-24T08:36:18;4.90;;;2.40;;
77453;SDS011;66538;53.150;18.160;2023-06-24T08:38:46;4.80;;;3.00;;
77453;SDS011;66538;53.150;18.160;2023-06-24T08:41:12;5.40;;;3.10;;
77453;SDS011;66538;53.150;18.160;2023-06-24T08:43:39;5.50;;;2.80;;
77453;SDS011;66538;53.150;18.160;2023-06-24T08:46:06;5.00;;;2.90;;
77453;SDS011;66538;53.150;18.160;2023-06-24T08:48:33;4.60;;;3.00;;
77453;SDS011;66538;53.150;18.160;2023-06-24T08:51:09;5.70;;;2.80;;
77453;SDS011;66538;53.150;18.160;2023-06-24T08:53:38;5.60;;;3.10;;
77453;SDS011;66538;53.150;18.160;2023-06-24T08:56:08;5.00;;;2.50;;
77453;SDS011;66538;53.150;18.160;2023-06-24T08:58:36;4.70;;;2.00;;
77453;SDS011;66538;53.150;18.160;2023-06-24T09:01:03;4.90;;;3.00;;
77453;SDS011;66538;53.150;18.160;2023-06-24T09:03:30;4.10;;;2.40;;
77453;SDS011;66538;53.150;18.160;2023-06-24T09:05:56;4.50;;;2.70;;
77453;SDS011;66538;53.150;18.160;2023-06-24T09:08:23;6.00;;;3.00;;
77453;SDS011;66538;53.150;18.160;2023-06-24T09:10:54;6.20;;;2.60;;
77453;SDS011;66538;53.150;18.160;2023-06-24T09:13:36;5.40;;;3.20;;
77453;SDS011;66538;53.150;18.160;2023-06-24T09:16:13;6.20;;;3.20;;
77453;SDS011;66538;53.150;18.160;2023-06-24T09:18:40;5.70;;;3.20;;
77453;SDS011;66538;53.150;18.160;2023-06-24T09:21:07;4.40;;;2.70;;
77453;SDS011;66538;53.150;18.160;2023-06-24T09:23:36;6.10;;;3.30;;
77453;SDS011;66538;53.150;18.160;2023-06-24T09:26:03;5.00;;;3.00;;
77453;SDS011;66538;53.150;18.160;2023-06-24T09:28:30;5.60;;;3.00;;
77453;SDS011;66538;53.150;18.160;2023-06-24T09:31:03;5.60;;;3.10;;
77453;SDS011;66538;53.150;18.160;2023-06-24T09:33:31;5.70;;;3.40;;
77453;SDS011;66538;53.150;18.160;2023-06-24T09:35:58;5.10;;;2.70;;
77453;SDS011;66538;53.150;18.160;2023-06-24T09:38:32;5.20;;;2.80;;
77453;SDS011;66538;53.150;18.160;2023-06-24T09:41:03;5.30;;;3.20;;
77453;SDS011;66538;53.150;18.160;2023-06-24T09:43:33;7.40;;;3.10;;
77453;SDS011;66538;53.150;18.160;2023-06-24T09:46:02;4.10;;;2.50;;
77453;SDS011;66538;53.150;18.160;2023-06-24T09:48:30;6.00;;;3.20;;
77453;SDS011;66538;53.150;18.160;2023-06-24T09:50:59;5.00;;;3.10;;
77453;SDS011;66538;53.150;18.160;2023-06-24T09:53:31;6.30;;;3.60;;
77453;SDS011;66538;53.150;18.160;2023-06-24T09:56:00;6.10;;;3.60;;
77453;SDS011;66538;53.150;18.160;2023-06-24T09:58:28;5.60;;;3.30;;
77453;SDS011;66538;53.150;18.160;2023-06-24T10:01:02;5.60;;;2.90;;
77453;SDS011;66538;53.150;18.160;2023-06-24T10:03:37;5.00;;;2.80;;
77453;SDS011;66538;53.150;18.160;2023-06-24T10:06:05;5.10;;;2.90;;
77453;SDS011;66538;53.150;18.160;2023-06-24T10:11:00;5.70;;;3.30;;
77453;SDS011;66538;53.150;18.160;2023-06-24T10:13:27;4.50;;;3.10;;
77453;SDS011;66538;53.150;18.160;2023-06-24T10:15:55;6.10;;;3.90;;
77453;SDS011;66538;53.150;18.160;2023-06-24T10:18:36;5.10;;;3.20;;
77453;SDS011;66538;53.150;18.160;2023-06-24T10:21:04;4.80;;;2.80;;
77453;SDS011;66538;53.150;18.160;2023-06-24T10:23:54;5.80;;;3.40;;
77453;SDS011;66538;53.150;18.160;2023-06-24T10:26:24;4.70;;;2.40;;
77453;SDS011;66538;53.150;18.160;2023-06-24T10:37:22;5.30;;;2.90;;
77453;SDS011;66538;53.150;18.160;2023-06-24T10:44:58;5.90;;;3.50;;
77453;SDS011;66538;53.150;18.160;2023-06-24T10:47:40;5.80;;;3.30;;
77453;SDS011;66538;53.150;18.160;2023-06-24T10:50:12;5.50;;;3.00;;
77453;SDS011;66538;53.150;18.160;2023-06-24T10:52:41;4.40;;;2.40;;
77453;SDS011;66538;53.150;18.160;2023-06-24T10:55:10;4.80;;;3.10;;
77453;SDS011;66538;53.150;18.160;2023-06-24T10:57:39;4.80;;;2.80;;
77453;SDS011;66538;53.150;18.160;2023-06-24T11:00:07;5.10;;;2.90;;
77453;SDS011;66538;53.150;18.160;2023-06-24T11:02:34;5.00;;;3.20;;
77453;SDS011;66538;53.150;18.160;2023-06-24T11:05:02;5.50;;;3.20;;
77453;SDS011;66538;53.150;18.160;2023-06-24T11:07:31;5.10;;;3.00;;
77453;SDS011;66538;53.150;18.160;2023-06-24T11:10:06;4.70;;;2.70;;
77453;SDS011;66538;53.150;18.160;2023-06-24T11:12:35;5.60;;;3.50;;
77453;SDS011;66538;53.150;18.160;2023-06-24T11:15:04;5.40;;;3.20;;
77453;SDS011;66538;53.150;18.160;2023-06-24T11:17:32;5.60;;;2.90;;
77453;SDS011;66538;53.150;18.160;2023-06-24T11:20:00;4.60;;;2.70;;
77453;SDS011;66538;53.150;18.160;2023-06-24T11:22:28;6.50;;;3.60;;
77453;SDS011;66538;53.150;18.160;2023-06-24T11:24:55;4.20;;;2.90;;
77453;SDS011;66538;53.150;18.160;2023-06-24T11:29:54;4.60;;;3.20;;
77453;SDS011;66538;53.150;18.160;2023-06-24T11:32:24;4.60;;;2.90;;
77453;SDS011;66538;53.150;18.160;2023-06-24T11:34:51;6.70;;;3.00;;
77453;SDS011;66538;53.150;18.160;2023-06-24T11:37:18;5.60;;;3.20;;
77453;SDS011;66538;53.150;18.160;2023-06-24T11:39:45;4.90;;;2.50;;
77453;SDS011;66538;53.150;18.160;2023-06-24T11:42:27;4.80;;;2.90;;
77453;SDS011;66538;53.150;18.160;2023-06-24T11:47:32;4.40;;;2.60;;
77453;SDS011;66538;53.150;18.160;2023-06-24T11:50:00;4.00;;;3.00;;
77453;SDS011;66538;53.150;18.160;2023-06-24T11:52:46;4.90;;;2.90;;
77453;SDS011;66538;53.150;18.160;2023-06-24T11:55:19;4.70;;;2.60;;
77453;SDS011;66538;53.150;18.160;2023-06-24T11:57:49;5.60;;;3.10;;
77453;SDS011;66538;53.150;18.160;2023-06-24T12:00:31;5.90;;;3.00;;
77453;SDS011;66538;53.150;18.160;2023-06-24T12:03:06;4.60;;;3.00;;
77453;SDS011;66538;53.150;18.160;2023-06-24T12:05:35;5.20;;;3.10;;
77453;SDS011;66538;53.150;18.160;2023-06-24T12:08:04;6.50;;;3.10;;
77453;SDS011;66538;53.150;18.160;2023-06-24T12:10:33;5.20;;;3.10;;
77453;SDS011;66538;53.150;18.160;2023-06-24T12:13:01;5.20;;;2.80;;
77453;SDS011;66538;53.150;18.160;2023-06-24T12:15:30;5.50;;;3.20;;
77453;SDS011;66538;53.150;18.160;2023-06-24T12:17:56;4.70;;;3.10;;
77453;SDS011;66538;53.150;18.160;2023-06-24T12:20:24;5.10;;;2.80;;
77453;SDS011;66538;53.150;18.160;2023-06-24T12:22:51;5.10;;;3.20;;
77453;SDS011;66538;53.150;18.160;2023-06-24T12:25:18;5.00;;;2.80;;
77453;SDS011;66538;53.150;18.160;2023-06-24T12:27:45;5.00;;;2.80;;
77453;SDS011;66538;53.150;18.160;2023-06-24T12:30:12;4.60;;;2.70;;
77453;SDS011;66538;53.150;18.160;2023-06-24T12:32:39;5.50;;;3.30;;
77453;SDS011;66538;53.150;18.160;2023-06-24T12:35:06;5.70;;;3.10;;
77453;SDS011;66538;53.150;18.160;2023-06-24T12:37:36;5.10;;;2.60;;
77453;SDS011;66538;53.150;18.160;2023-06-24T12:40:04;3.90;;;2.60;;
77453;SDS011;66538;53.150;18.160;2023-06-24T12:42:31;5.80;;;2.80;;
77453;SDS011;66538;53.150;18.160;2023-06-24T12:44:58;5.70;;;3.10;;
77453;SDS011;66538;53.150;18.160;2023-06-24T12:47:25;5.50;;;3.10;;
77453;SDS011;66538;53.150;18.160;2023-06-24T12:49:52;4.90;;;3.10;;
77453;SDS011;66538;53.150;18.160;2023-06-24T12:52:19;5.00;;;3.20;;
77453;SDS011;66538;53.150;18.160;2023-06-24T12:54:45;6.50;;;2.90;;
77453;SDS011;66538;53.150;18.160;2023-06-24T12:57:13;4.50;;;2.80;;
77453;SDS011;66538;53.150;18.160;2023-06-24T12:59:41;4.90;;;2.80;;
77453;SDS011;66538;53.150;18.160;2023-06-24T13:02:08;5.70;;;3.00;;
77453;SDS011;66538;53.150;18.160;2023-06-24T13:04:34;4.70;;;2.90;;
77453;SDS011;66538;53.150;18.160;2023-06-24T13:07:01;4.60;;;2.80;;
77453;SDS011;66538;53.150;18.160;2023-06-24T13:09:28;5.60;;;3.10;;
77453;SDS011;66538;53.150;18.160;2023-06-24T13:11:55;5.00;;;3.10;;
77453;SDS011;66538;53.150;18.160;2023-06-24T13:14:21;5.80;;;2.80;;
77453;SDS011;66538;53.150;18.160;2023-06-24T13:16:48;5.10;;;2.90;;
77453;SDS011;66538;53.150;18.160;2023-06-24T13:19:14;4.90;;;3.00;;
77453;SDS011;66538;53.150;18.160;2023-06-24T13:21:42;5.00;;;3.00;;
77453;SDS011;66538;53.150;18.160;2023-06-24T13:24:08;4.80;;;3.10;;
77453;SDS011;66538;53.150;18.160;2023-06-24T13:26:35;7.30;;;3.50;;
77453;SDS011;66538;53.150;18.160;2023-06-24T13:29:01;4.90;;;3.10;;
77453;SDS011;66538;53.150;18.160;2023-06-24T13:31:29;4.70;;;3.00;;
77453;SDS011;66538;53.150;18.160;2023-06-24T13:33:55;5.80;;;3.20;;
77453;SDS011;66538;53.150;18.160;2023-06-24T13:36:40;4.20;;;2.70;;
77453;SDS011;66538;53.150;18.160;2023-06-24T13:39:08;4.30;;;2.70;;
77453;SDS011;66538;53.150;18.160;2023-06-24T13:41:39;4.50;;;2.90;;
77453;SDS011;66538;53.150;18.160;2023-06-24T13:44:06;5.10;;;2.90;;
77453;SDS011;66538;53.150;18.160;2023-06-24T13:46:33;4.60;;;3.20;;
77453;SDS011;66538;53.150;18.160;2023-06-24T13:49:00;5.70;;;3.20;;
77453;SDS011;66538;53.150;18.160;2023-06-24T13:51:27;4.60;;;3.40;;
77453;SDS011;66538;53.150;18.160;2023-06-24T13:53:54;5.40;;;3.30;;
77453;SDS011;66538;53.150;18.160;2023-06-24T13:56:22;6.80;;;3.40;;
77453;SDS011;66538;53.150;18.160;2023-06-24T13:58:50;5.70;;;3.00;;
77453;SDS011;66538;53.150;18.160;2023-06-24T14:01:18;5.70;;;2.90;;
77453;SDS011;66538;53.150;18.160;2023-06-24T14:03:46;4.50;;;3.20;;
77453;SDS011;66538;53.150;18.160;2023-06-24T14:06:14;4.60;;;3.20;;
77453;SDS011;66538;53.150;18.160;2023-06-24T14:08:42;5.40;;;3.40;;
77453;SDS011;66538;53.150;18.160;2023-06-24T14:11:09;5.00;;;3.00;;
77453;SDS011;66538;53.150;18.160;2023-06-24T14:13:36;4.30;;;3.10;;
77453;SDS011;66538;53.150;18.160;2023-06-24T14:16:03;4.30;;;2.90;;
77453;SDS011;66538;53.150;18.160;2023-06-24T14:18:30;5.60;;;3.20;;
77453;SDS011;66538;53.150;18.160;2023-06-24T14:20:58;5.60;;;2.90;;
77453;SDS011;66538;53.150;18.160;2023-06-24T14:23:25;4.30;;;2.80;;
77453;SDS011;66538;53.150;18.160;2023-06-24T14:25:52;4.70;;;2.70;;
77453;SDS011;66538;53.150;18.160;2023-06-24T14:28:19;4.80;;;2.90;;
77453;SDS011;66538;53.150;18.160;2023-06-24T14:30:46;6.20;;;3.30;;
77453;SDS011;66538;53.150;18.160;2023-06-24T14:33:13;6.10;;;2.70;;
77453;SDS011;66538;53.150;18.160;2023-06-24T14:38:07;3.80;;;2.70;;
77453;SDS011;66538;53.150;18.160;2023-06-24T14:40:34;5.60;;;2.90;;
77453;SDS011;66538;53.150;18.160;2023-06-24T14:43:00;4.90;;;3.00;;
77453;SDS011;66538;53.150;18.160;2023-06-24T14:45:27;5.30;;;3.10;;
77453;SDS011;66538;53.150;18.160;2023-06-24T14:47:53;4.70;;;2.90;;
77453;SDS011;66538;53.150;18.160;2023-06-24T14:50:20;4.20;;;2.80;;
77453;SDS011;66538;53.150;18.160;2023-06-24T14:52:47;4.80;;;3.00;;
77453;SDS011;66538;53.150;18.160;2023-06-24T14:55:13;4.40;;;2.90;;
77453;SDS011;66538;53.150;18.160;2023-06-24T14:57:40;4.90;;;2.70;;
77453;SDS011;66538;53.150;18.160;2023-06-24T15:00:07;4.90;;;2.90;;
77453;SDS011;66538;53.150;18.160;2023-06-24T15:02:34;4.00;;;2.90;;
77453;SDS011;66538;53.150;18.160;2023-06-24T15:05:01;4.30;;;2.60;;
77453;SDS011;66538;53.150;18.160;2023-06-24T15:07:29;4.50;;;2.70;;
77453;SDS011;66538;53.150;18.160;2023-06-24T15:09:56;4.00;;;2.40;;
77453;SDS011;66538;53.150;18.160;2023-06-24T15:12:22;4.00;;;2.90;;
77453;SDS011;66538;53.150;18.160;2023-06-24T15:14:49;4.40;;;2.70;;
77453;SDS011;66538;53.150;18.160;2023-06-24T15:17:16;4.60;;;3.00;;
77453;SDS011;66538;53.150;18.160;2023-06-24T15:19:42;4.20;;;2.60;;